Time;durP1;ratioP1;P1;durP2;ratioP2;P2;SDS_P1;SDS_P2;PMS_P1;PMS_P2;Temp;Humidity;BMP_temperature;BMP_pressure;BME280_temperature;BME280_humidity;BME280_pressure;Samples;Min_cycle;Max_cycle;Signal;HPM_P1;HPM_P2
2021/01/11 00:00:10;;;;;;;29.73;17.48;;;1.50;99.90;;;;;;5113559;28;20218;-77
2021/01/11 00:02:36;;;;;;;28.90;15.88;;;1.60;99.90;;;;;;5112180;28;20677;-77
2021/01/11 00:05:03;;;;;;;25.73;15.85;;;1.60;99.90;;;;;;5114255;28;20235;-77
2021/01/11 00:07:29;;;;;;;24.63;14.55;;;1.60;99.90;;;;;;5114525;28;20291;-77
2021/01/11 00:09:55;;;;;;;30.10;16.33;;;1.60;99.90;;;;;;5114224;28;20192;-77
2021/01/11 00:12:21;;;;;;;23.87;15.50;;;1.60;99.90;;;;;;5114546;28;20450;-77
2021/01/11 00:14:47;;;;;;;26.33;15.70;;;1.60;99.90;;;;;;5114372;28;20537;-77
2021/01/11 00:17:13;;;;;;;23.27;15.43;;;1.60;99.90;;;;;;5114641;28;20188;-77
2021/01/11 00:19:40;;;;;;;26.15;15.10;;;1.60;99.90;;;;;;5114416;28;20244;-77
2021/01/11 00:22:06;;;;;;;24.00;15.52;;;1.50;99.90;;;;;;5114494;28;20194;-77
2021/01/11 00:24:32;;;;;;;25.35;14.77;;;1.50;99.90;;;;;;5114302;28;20286;-77
2021/01/11 00:26:59;;;;;;;27.25;16.10;;;1.50;99.90;;;;;;5111045;28;20230;-77
2021/01/11 00:29:25;;;;;;;31.20;16.42;;;1.50;99.90;;;;;;5113937;28;20184;-77
2021/01/11 00:31:52;;;;;;;26.30;15.27;;;1.50;99.90;;;;;;5113959;28;20271;-77
2021/01/11 00:34:18;;;;;;;29.30;16.52;;;1.50;99.90;;;;;;5113900;28;20329;-76
2021/01/11 00:36:46;;;;;;;25.10;15.13;;;1.50;99.90;;;;;;5113528;28;20221;-78
2021/01/11 00:39:13;;;;;;;22.77;15.65;;;1.50;99.90;;;;;;5113594;28;20314;-76
2021/01/11 00:41:39;;;;;;;24.42;15.43;;;1.50;99.90;;;;;;5113996;28;20275;-77
2021/01/11 00:44:05;;;;;;;24.20;14.13;;;1.50;99.90;;;;;;5114290;28;20629;-78
2021/01/11 00:46:32;;;;;;;22.55;14.65;;;1.50;99.90;;;;;;5114962;28;20279;-76
2021/01/11 00:48:59;;;;;;;22.50;14.65;;;1.60;99.90;;;;;;5114794;28;20192;-77
2021/01/11 00:51:26;;;;;;;25.08;15.80;;;1.60;99.90;;;;;;5114984;28;20194;-76
2021/01/11 00:53:52;;;;;;;25.38;15.70;;;1.60;99.90;;;;;;5114619;28;20248;-77
2021/01/11 00:56:19;;;;;;;25.30;14.88;;;1.60;99.90;;;;;;5114658;28;20191;-76
2021/01/11 00:58:48;;;;;;;24.60;16.10;;;1.60;99.90;;;;;;5114523;28;20234;-76
2021/01/11 01:01:15;;;;;;;22.92;14.60;;;1.60;99.90;;;;;;5114591;28;20302;-76
2021/01/11 01:03:42;;;;;;;25.42;15.70;;;1.60;99.90;;;;;;5113785;28;20275;-76
2021/01/11 01:06:11;;;;;;;27.48;15.77;;;1.70;99.90;;;;;;5113574;28;20234;-76
2021/01/11 01:08:37;;;;;;;22.98;15.27;;;1.70;99.90;;;;;;5113556;28;20188;-77
2021/01/11 01:11:04;;;;;;;20.60;14.07;;;1.70;99.90;;;;;;5113392;28;20283;-76
2021/01/11 01:13:30;;;;;;;21.77;14.30;;;1.80;99.90;;;;;;5113484;28;20192;-77
2021/01/11 01:15:56;;;;;;;20.95;13.90;;;1.80;99.90;;;;;;5113542;28;20275;-77
2021/01/11 01:18:22;;;;;;;24.30;14.70;;;1.90;99.90;;;;;;5112083;28;20223;-77
2021/01/11 01:20:48;;;;;;;22.80;14.93;;;1.90;99.90;;;;;;5113402;28;20988;-77
2021/01/11 01:23:14;;;;;;;22.60;14.32;;;1.90;99.90;;;;;;5110351;28;20540;-76
2021/01/11 01:25:40;;;;;;;20.92;13.88;;;2.00;99.90;;;;;;5113347;28;20271;-76
2021/01/11 01:28:07;;;;;;;24.15;15.55;;;2.10;99.90;;;;;;5111908;28;20191;-76
2021/01/11 01:30:33;;;;;;;21.90;14.35;;;2.10;99.90;;;;;;5113412;28;20192;-76
2021/01/11 01:32:59;;;;;;;21.20;14.05;;;2.10;99.90;;;;;;5113282;28;20191;-76
2021/01/11 01:35:26;;;;;;;21.10;14.15;;;2.20;99.90;;;;;;5113015;28;20199;-77
2021/01/11 01:37:52;;;;;;;22.90;14.80;;;2.20;99.90;;;;;;5113214;28;20717;-77
2021/01/11 01:40:19;;;;;;;18.58;13.73;;;2.20;99.90;;;;;;5112910;28;20242;-77
2021/01/11 01:42:45;;;;;;;22.40;13.90;;;2.20;99.90;;;;;;5113317;28;20324;-77
2021/01/11 01:45:12;;;;;;;19.38;13.98;;;2.30;99.90;;;;;;5113215;28;20660;-77
2021/01/11 01:47:38;;;;;;;21.98;13.90;;;2.30;99.90;;;;;;5113187;28;20622;-77
2021/01/11 01:50:06;;;;;;;21.83;13.90;;;2.30;99.90;;;;;;5113001;28;20610;-76
2021/01/11 01:52:33;;;;;;;16.00;12.07;;;2.40;99.90;;;;;;5113214;28;20188;-76
2021/01/11 01:54:59;;;;;;;21.38;13.90;;;2.40;99.90;;;;;;5113236;28;20291;-76
2021/01/11 01:57:26;;;;;;;17.88;13.23;;;2.40;99.90;;;;;;5113229;28;20279;-77
2021/01/11 01:59:52;;;;;;;19.63;12.85;;;2.40;99.90;;;;;;5112896;28;20218;-76
2021/01/11 02:02:19;;;;;;;16.63;11.95;;;2.40;99.90;;;;;;5112986;28;20278;-77
2021/01/11 02:04:45;;;;;;;18.23;13.52;;;2.40;99.90;;;;;;5112898;28;20593;-77
2021/01/11 02:07:17;;;;;;;18.55;12.13;;;2.40;99.90;;;;;;5112937;28;20279;-77
2021/01/11 02:09:52;;;;;;;18.10;12.30;;;2.40;99.90;;;;;;5113016;28;20202;-77
2021/01/11 02:12:21;;;;;;;18.85;11.80;;;2.50;99.90;;;;;;5113030;28;20666;-77
2021/01/11 02:15:02;;;;;;;15.40;10.45;;;2.50;99.90;;;;;;5112975;28;20334;-77
2021/01/11 02:17:33;;;;;;;18.52;10.73;;;2.50;99.90;;;;;;5113052;28;20275;-78
2021/01/11 02:20:27;;;;;;;18.08;12.18;;;2.60;99.90;;;;;;5112912;28;20592;-77
2021/01/11 02:23:09;;;;;;;16.30;11.20;;;2.60;99.90;;;;;;5112556;28;20276;-77
2021/01/11 02:25:40;;;;;;;16.27;10.75;;;2.60;99.90;;;;;;5112707;28;20184;-77
2021/01/11 02:28:29;;;;;;;18.83;13.65;;;2.50;99.90;;;;;;5116836;28;20546;-77
2021/01/11 02:30:58;;;;;;;16.65;12.02;;;2.60;99.90;;;;;;5113140;28;20287;-77
2021/01/11 02:33:26;;;;;;;19.85;12.50;;;2.60;99.90;;;;;;5116651;28;20710;-77
2021/01/11 02:36:05;;;;;;;17.27;12.18;;;2.60;99.90;;;;;;5116492;28;20203;-77
2021/01/11 02:38:32;;;;;;;15.90;10.68;;;2.60;99.90;;;;;;5112678;28;20226;-76
2021/01/11 02:40:59;;;;;;;17.30;11.85;;;2.60;99.90;;;;;;5095747;28;20567;-77
2021/01/11 02:43:25;;;;;;;18.45;12.00;;;2.60;99.90;;;;;;5096001;28;20282;-77
2021/01/11 02:45:51;;;;;;;18.98;11.18;;;2.60;99.90;;;;;;5096895;28;20199;-77
2021/01/11 02:48:22;;;;;;;17.77;11.25;;;2.60;99.90;;;;;;5116279;28;20196;-77
2021/01/11 02:50:56;;;;;;;17.40;10.90;;;2.60;99.90;;;;;;5116098;28;20670;-76
2021/01/11 02:53:31;;;;;;;18.05;11.48;;;2.50;99.90;;;;;;5116373;28;20199;-76
2021/01/11 02:56:00;;;;;;;17.85;11.95;;;2.60;99.90;;;;;;5116145;28;20336;-77
2021/01/11 02:58:37;;;;;;;15.05;11.40;;;2.60;99.90;;;;;;5116246;28;20249;-77
2021/01/11 03:01:07;;;;;;;23.15;14.05;;;2.50;99.90;;;;;;5116157;28;20207;-77
2021/01/11 03:03:36;;;;;;;14.38;10.55;;;2.50;99.90;;;;;;5116158;28;20241;-76
2021/01/11 03:06:02;;;;;;;17.55;12.10;;;2.50;99.90;;;;;;5116033;28;20259;-77
2021/01/11 03:08:28;;;;;;;15.45;11.18;;;2.50;99.90;;;;;;5115977;28;20282;-76
2021/01/11 03:10:54;;;;;;;16.02;11.52;;;2.50;99.90;;;;;;5115828;28;20244;-77
2021/01/11 03:13:20;;;;;;;18.10;12.33;;;2.50;99.90;;;;;;5115832;28;20220;-77
2021/01/11 03:15:47;;;;;;;19.13;12.15;;;2.50;99.90;;;;;;5115898;28;21023;-78
2021/01/11 03:18:13;;;;;;;15.00;11.10;;;2.50;99.90;;;;;;5115969;28;20278;-77
2021/01/11 03:20:40;;;;;;;14.77;11.70;;;2.60;99.90;;;;;;5115624;28;20307;-77
2021/01/11 03:23:05;;;;;;;16.45;12.38;;;2.60;99.90;;;;;;5115696;28;20614;-77
2021/01/11 03:25:31;;;;;;;17.77;11.60;;;2.50;99.90;;;;;;5115518;28;20184;-77
2021/01/11 03:27:57;;;;;;;15.27;11.00;;;2.50;99.90;;;;;;5115472;28;20450;-77
2021/01/11 03:30:24;;;;;;;17.47;11.43;;;2.50;99.90;;;;;;5113342;28;20506;-77
2021/01/11 03:32:51;;;;;;;15.48;11.80;;;2.60;99.90;;;;;;5115545;28;20457;-77
2021/01/11 03:35:17;;;;;;;15.27;11.27;;;2.60;99.90;;;;;;5115380;28;20665;-77
2021/01/11 03:37:44;;;;;;;16.80;12.07;;;2.50;99.90;;;;;;5112343;28;20271;-77
2021/01/11 03:40:11;;;;;;;15.10;11.00;;;2.60;99.90;;;;;;5113927;28;20232;-77
2021/01/11 03:42:37;;;;;;;18.02;11.52;;;2.60;99.90;;;;;;5115199;28;20192;-77
2021/01/11 03:45:05;;;;;;;17.88;11.63;;;2.60;99.90;;;;;;5115061;28;20659;-77
2021/01/11 03:47:31;;;;;;;16.85;11.20;;;2.60;99.90;;;;;;5115346;28;20238;-76
2021/01/11 03:49:58;;;;;;;15.50;11.30;;;2.70;99.90;;;;;;5115130;28;20713;-77
2021/01/11 03:52:24;;;;;;;17.85;11.25;;;2.60;99.90;;;;;;5115157;28;20450;-77
2021/01/11 03:54:51;;;;;;;16.50;11.55;;;2.70;99.90;;;;;;5115061;28;20283;-77
2021/01/11 03:57:17;;;;;;;15.60;11.70;;;2.60;99.90;;;;;;5114879;28;20282;-77
2021/01/11 03:59:43;;;;;;;15.50;10.93;;;2.60;99.90;;;;;;5114926;28;20612;-77
2021/01/11 04:02:09;;;;;;;16.15;11.50;;;2.60;99.90;;;;;;5114983;28;20194;-77
2021/01/11 04:04:35;;;;;;;16.02;10.80;;;2.60;99.90;;;;;;5113694;28;20271;-77
2021/01/11 04:07:01;;;;;;;14.67;10.70;;;2.60;99.90;;;;;;5114868;28;20194;-77
2021/01/11 04:09:27;;;;;;;17.40;12.20;;;2.60;99.90;;;;;;5114782;28;20544;-78
2021/01/11 04:11:53;;;;;;;16.10;11.63;;;2.60;99.90;;;;;;5114637;28;20192;-78
2021/01/11 04:14:20;;;;;;;13.38;10.70;;;2.50;99.90;;;;;;5114921;28;20877;-78
2021/01/11 04:16:46;;;;;;;16.85;12.30;;;2.50;99.90;;;;;;5114873;28;20194;-78
2021/01/11 04:19:12;;;;;;;19.08;10.70;;;2.40;99.90;;;;;;5114575;28;20191;-78
2021/01/11 04:21:41;;;;;;;16.08;12.40;;;2.40;99.90;;;;;;5114371;28;20316;-78
2021/01/11 04:24:07;;;;;;;14.85;12.02;;;2.30;99.90;;;;;;5114428;28;20188;-78
2021/01/11 04:26:33;;;;;;;16.55;12.55;;;2.30;99.90;;;;;;5114162;28;20516;-78
2021/01/11 04:29:00;;;;;;;15.93;11.27;;;2.30;99.90;;;;;;5114537;28;20241;-77
2021/01/11 04:31:26;;;;;;;20.75;13.13;;;2.30;99.90;;;;;;5114254;28;20883;-77
2021/01/11 04:33:52;;;;;;;19.73;13.03;;;2.30;99.90;;;;;;5114384;28;20195;-76
2021/01/11 04:36:18;;;;;;;16.87;12.23;;;2.30;99.90;;;;;;5114086;28;20477;-76
2021/01/11 04:38:44;;;;;;;16.20;11.93;;;2.30;99.90;;;;;;5113919;28;20445;-77
2021/01/11 04:41:11;;;;;;;20.20;14.40;;;2.30;99.90;;;;;;5114195;28;20570;-77
2021/01/11 04:43:43;;;;;;;18.42;12.35;;;2.30;99.90;;;;;;5114209;28;20195;-77
2021/01/11 04:46:13;;;;;;;20.27;13.30;;;2.30;99.90;;;;;;5113879;28;20287;-76
2021/01/11 04:48:39;;;;;;;20.05;13.82;;;2.30;99.90;;;;;;5113464;28;20199;-77
2021/01/11 04:51:06;;;;;;;19.48;13.80;;;2.30;99.90;;;;;;5113952;28;20275;-77
2021/01/11 04:53:34;;;;;;;16.15;12.65;;;2.30;99.90;;;;;;5113828;28;20722;-76
2021/01/11 04:56:02;;;;;;;21.65;14.10;;;2.30;99.90;;;;;;5114027;28;20192;-76
2021/01/11 04:58:52;;;;;;;19.35;12.20;;;2.30;99.90;;;;;;5113961;28;20226;-76
2021/01/11 05:01:21;;;;;;;20.17;13.27;;;2.30;99.90;;;;;;5113072;28;20257;-77
2021/01/11 05:03:49;;;;;;;17.58;13.32;;;2.30;99.90;;;;;;5113532;28;20192;-76
2021/01/11 05:06:16;;;;;;;17.30;13.50;;;2.30;99.90;;;;;;5113851;28;20218;-76
2021/01/11 05:08:42;;;;;;;25.63;14.45;;;2.30;99.90;;;;;;5113837;28;20611;-76
2021/01/11 05:11:08;;;;;;;20.35;14.93;;;2.30;99.90;;;;;;5113718;28;20286;-76
2021/01/11 05:13:34;;;;;;;24.60;14.43;;;2.30;99.90;;;;;;5113584;28;20215;-76
2021/01/11 05:16:10;;;;;;;19.58;13.43;;;2.30;99.90;;;;;;5113529;28;20528;-76
2021/01/11 05:18:37;;;;;;;19.33;13.68;;;2.30;99.90;;;;;;5113355;28;20199;-76
2021/01/11 05:21:03;;;;;;;18.45;12.65;;;2.20;99.90;;;;;;5113226;28;20686;-76
2021/01/11 05:23:35;;;;;;;15.73;12.23;;;2.30;99.90;;;;;;5113325;28;20191;-76
2021/01/11 05:26:12;;;;;;;20.17;13.93;;;2.30;99.90;;;;;;5113430;28;20200;-76
2021/01/11 05:28:38;;;;;;;18.35;13.43;;;2.30;99.90;;;;;;5113415;28;20567;-77
2021/01/11 05:31:05;;;;;;;17.13;11.90;;;2.30;99.90;;;;;;5113145;28;20192;-77
2021/01/11 05:33:31;;;;;;;20.20;12.90;;;2.30;99.90;;;;;;5113490;28;20215;-77
2021/01/11 05:36:06;;;;;;;18.33;12.25;;;2.30;99.90;;;;;;5113490;28;20702;-77
2021/01/11 05:38:36;;;;;;;14.02;11.18;;;2.30;99.90;;;;;;5113296;28;20202;-77
2021/01/11 05:41:13;;;;;;;15.73;13.07;;;2.30;99.90;;;;;;5098995;28;20314;-77
2021/01/11 05:43:40;;;;;;;38.17;23.75;;;2.40;99.90;;;;;;5092631;28;20275;-77
2021/01/11 05:46:21;;;;;;;28.60;17.30;;;2.40;99.90;;;;;;5093013;28;20654;-77
2021/01/11 05:48:57;;;;;;;20.80;13.70;;;2.40;99.90;;;;;;5092891;28;20283;-77
2021/01/11 05:51:24;;;;;;;18.45;12.85;;;2.40;99.90;;;;;;5092903;28;20192;-77
2021/01/11 05:53:50;;;;;;;15.93;12.57;;;2.40;99.90;;;;;;5092594;28;20275;-77
2021/01/11 05:56:16;;;;;;;20.25;13.20;;;2.40;99.90;;;;;;5092930;28;20284;-77
2021/01/11 05:58:42;;;;;;;19.00;13.00;;;2.40;99.90;;;;;;5092821;28;20224;-77
2021/01/11 06:01:08;;;;;;;14.75;11.90;;;2.40;99.90;;;;;;5093528;28;21000;-77
2021/01/11 06:03:34;;;;;;;16.83;12.70;;;2.40;99.90;;;;;;5096836;28;20218;-77
2021/01/11 06:06:01;;;;;;;17.40;13.35;;;2.40;99.90;;;;;;5096703;28;20541;-77
2021/01/11 06:08:29;;;;;;;15.77;11.43;;;2.40;99.90;;;;;;5096463;28;20256;-77
2021/01/11 06:10:56;;;;;;;19.60;11.60;;;2.30;99.90;;;;;;5096838;28;20196;-77
2021/01/11 06:13:23;;;;;;;17.52;12.35;;;2.30;99.90;;;;;;5096715;28;20189;-77
2021/01/11 06:15:50;;;;;;;16.38;12.57;;;2.30;99.90;;;;;;5096688;28;20188;-77
2021/01/11 06:18:16;;;;;;;18.77;12.35;;;2.30;99.90;;;;;;5096476;28;20275;-77
2021/01/11 06:20:44;;;;;;;15.23;12.27;;;2.30;99.90;;;;;;5096377;28;20597;-76
2021/01/11 06:23:11;;;;;;;11.88;10.57;;;2.30;99.90;;;;;;5096483;28;20622;-77
2021/01/11 06:25:40;;;;;;;15.80;11.85;;;2.30;99.90;;;;;;5102187;28;20184;-77
2021/01/11 06:28:08;;;;;;;14.50;11.40;;;2.30;99.90;;;;;;5116794;28;20188;-78
2021/01/11 06:30:36;;;;;;;12.25;10.10;;;2.30;99.90;;;;;;5116738;28;20188;-78
2021/01/11 06:33:05;;;;;;;15.50;11.45;;;2.30;99.90;;;;;;5116647;28;20283;-78
2021/01/11 06:35:31;;;;;;;15.07;11.18;;;2.20;99.90;;;;;;5116380;28;20241;-77
2021/01/11 06:38:07;;;;;;;17.08;11.98;;;2.20;99.90;;;;;;5116638;28;20627;-77
2021/01/11 06:40:33;;;;;;;15.48;10.68;;;2.20;99.90;;;;;;5116282;28;20227;-77
2021/01/11 06:43:02;;;;;;;18.25;11.80;;;2.30;99.90;;;;;;5116392;28;20192;-77
2021/01/11 06:45:38;;;;;;;17.13;11.32;;;2.30;99.90;;;;;;5116385;28;20674;-77
2021/01/11 06:48:05;;;;;;;15.43;10.48;;;2.30;99.90;;;;;;5115010;28;20267;-77
2021/01/11 06:50:32;;;;;;;16.92;11.63;;;2.30;99.90;;;;;;5116478;28;20195;-77
2021/01/11 06:53:00;;;;;;;17.23;11.07;;;2.40;99.90;;;;;;5116272;28;20287;-77
2021/01/11 06:55:26;;;;;;;17.08;11.63;;;2.30;99.90;;;;;;5116340;28;20188;-77
2021/01/11 06:57:55;;;;;;;15.27;11.32;;;2.40;99.90;;;;;;5116287;28;20628;-77
2021/01/11 07:00:29;;;;;;;13.32;10.63;;;2.30;99.90;;;;;;5115965;28;20792;-77
2021/01/11 07:02:57;;;;;;;14.90;10.77;;;2.40;99.90;;;;;;5116147;28;20202;-77
2021/01/11 07:05:42;;;;;;;16.15;10.95;;;2.40;99.90;;;;;;5116149;28;20731;-76
2021/01/11 07:08:09;;;;;;;16.08;11.18;;;2.40;99.90;;;;;;5115943;28;20194;-77
2021/01/11 07:10:36;;;;;;;18.70;10.98;;;2.40;99.90;;;;;;5115811;28;20722;-77
2021/01/11 07:13:27;;;;;;;14.52;10.15;;;2.40;99.90;;;;;;5115172;28;20275;-77
2021/01/11 07:16:14;;;;;;;15.43;11.77;;;2.40;99.90;;;;;;5116043;28;20187;-77
2021/01/11 07:18:47;;;;;;;19.48;11.00;;;2.40;99.90;;;;;;5115771;28;20192;-77
2021/01/11 07:21:15;;;;;;;13.80;10.70;;;2.40;99.90;;;;;;5115619;28;20215;-77
2021/01/11 07:23:41;;;;;;;12.07;9.88;;;2.40;99.90;;;;;;5115811;28;20592;-77
2021/01/11 07:26:11;;;;;;;13.70;9.80;;;2.40;99.90;;;;;;5115620;28;20274;-76
2021/01/11 07:28:37;;;;;;;18.95;10.57;;;2.40;99.90;;;;;;5115646;28;20244;-77
2021/01/11 07:31:03;;;;;;;13.82;10.68;;;2.50;99.90;;;;;;5115545;28;20274;-77
2021/01/11 07:33:30;;;;;;;19.50;10.60;;;2.40;99.90;;;;;;5115568;28;20720;-76
2021/01/11 07:35:56;;;;;;;14.35;10.20;;;2.50;99.90;;;;;;5115205;28;20721;-81
2021/01/11 07:38:22;;;;;;;14.35;10.50;;;2.50;99.90;;;;;;5114880;28;20722;-79
2021/01/11 07:40:57;;;;;;;15.33;11.40;;;2.50;99.90;;;;;;5105042;28;20243;-79
2021/01/11 07:43:23;;;;;;;19.92;11.85;;;2.50;99.90;;;;;;5094975;28;20500;-78
2021/01/11 07:46:00;;;;;;;13.90;10.43;;;2.60;99.90;;;;;;5094704;28;20189;-78
2021/01/11 07:48:26;;;;;;;12.90;10.02;;;2.60;99.90;;;;;;5094819;28;20279;-78
2021/01/11 07:51:06;;;;;;;13.70;9.38;;;2.70;99.90;;;;;;5094782;28;20288;-80
2021/01/11 07:53:36;;;;;;;10.25;8.95;;;2.80;99.90;;;;;;5097080;28;20279;-78
2021/01/11 07:56:06;;;;;;;14.95;10.30;;;2.80;99.90;;;;;;5114030;28;20184;-79
2021/01/11 07:58:32;;;;;;;12.68;9.48;;;2.80;99.90;;;;;;5114525;28;20271;-78
2021/01/11 08:01:02;;;;;;;13.80;9.93;;;2.80;99.90;;;;;;5114412;28;20295;-78
2021/01/11 08:03:28;;;;;;;14.70;10.85;;;2.90;99.90;;;;;;5114570;28;20215;-79
2021/01/11 08:06:01;;;;;;;12.32;9.30;;;2.90;99.90;;;;;;5114686;28;20278;-78
2021/01/11 08:08:31;;;;;;;12.90;9.35;;;2.90;99.90;;;;;;5114385;28;20192;-77
2021/01/11 08:10:59;;;;;;;13.18;9.43;;;2.90;99.90;;;;;;5113781;28;20740;-78
2021/01/11 08:13:25;;;;;;;14.77;9.95;;;3.00;99.90;;;;;;5113854;28;20184;-77
2021/01/11 08:15:54;;;;;;;11.60;8.95;;;3.10;99.90;;;;;;5114013;28;20334;-77
2021/01/11 08:18:22;;;;;;;14.60;9.40;;;3.10;99.90;;;;;;5113811;28;20635;-77
2021/01/11 08:20:49;;;;;;;14.50;9.43;;;3.10;99.90;;;;;;5113431;28;20208;-77
2021/01/11 08:23:16;;;;;;;14.98;9.43;;;3.10;99.90;;;;;;5112829;28;20222;-79
2021/01/11 08:25:42;;;;;;;11.00;8.60;;;3.10;99.90;;;;;;5110829;28;20216;-77
2021/01/11 08:28:09;;;;;;;11.73;9.07;;;3.20;99.90;;;;;;5113930;28;20192;-78
2021/01/11 08:30:36;;;;;;;9.57;8.55;;;3.20;99.90;;;;;;5110564;28;21542;-76
2021/01/11 08:33:07;;;;;;;9.68;8.20;;;3.20;99.90;;;;;;5109396;28;20184;-76
2021/01/11 08:35:33;;;;;;;11.77;9.20;;;3.20;99.90;;;;;;5112141;28;20191;-76
2021/01/11 08:38:00;;;;;;;10.05;7.90;;;3.20;99.90;;;;;;5113229;28;20276;-76
2021/01/11 08:40:32;;;;;;;10.75;8.35;;;3.30;99.90;;;;;;5109911;28;20231;-75
2021/01/11 08:43:09;;;;;;;10.85;8.77;;;3.30;99.90;;;;;;5106187;28;20191;-76
2021/01/11 08:45:37;;;;;;;11.77;8.20;;;3.30;99.90;;;;;;5113351;28;20677;-76
2021/01/11 08:48:05;;;;;;;15.82;8.55;;;3.40;99.90;;;;;;5113238;28;20192;-76
2021/01/11 08:50:34;;;;;;;10.48;7.95;;;3.40;99.90;;;;;;5113479;28;20184;-76
2021/01/11 08:53:15;;;;;;;11.93;8.77;;;3.40;99.90;;;;;;5113326;28;20188;-76
2021/01/11 08:55:56;;;;;;;10.63;8.38;;;3.40;99.90;;;;;;5110587;28;20764;-75
2021/01/11 08:58:22;;;;;;;11.02;8.40;;;3.40;99.90;;;;;;5113078;28;20180;-75
2021/01/11 09:00:49;;;;;;;11.73;8.98;;;3.40;99.90;;;;;;5113156;28;20226;-76
2021/01/11 09:03:15;;;;;;;13.25;9.15;;;3.40;99.90;;;;;;5113188;28;20218;-76
2021/01/11 09:05:42;;;;;;;8.57;7.32;;;3.40;99.90;;;;;;5109603;28;20267;-76
2021/01/11 09:08:16;;;;;;;10.02;8.07;;;3.40;99.90;;;;;;5112897;28;20191;-76
2021/01/11 09:10:44;;;;;;;10.07;8.63;;;3.50;99.90;;;;;;5113063;28;20191;-76
2021/01/11 09:13:18;;;;;;;8.50;7.70;;;3.50;99.90;;;;;;5112674;28;20198;-77
2021/01/11 09:15:45;;;;;;;10.00;7.13;;;3.50;99.90;;;;;;5112397;28;20192;-82
2021/01/11 09:18:12;;;;;;;12.27;8.10;;;3.60;99.90;;;;;;5113118;28;20247;-80
2021/01/11 09:20:40;;;;;;;13.32;8.55;;;3.60;99.90;;;;;;5109924;28;20220;-82
2021/01/11 09:23:07;;;;;;;11.07;7.78;;;3.60;99.90;;;;;;5112197;28;20218;-80
2021/01/11 09:25:34;;;;;;;11.32;9.25;;;3.70;99.90;;;;;;5112575;28;20204;-81
2021/01/11 09:28:01;;;;;;;9.63;7.97;;;3.80;99.90;;;;;;5112935;28;20218;-81
2021/01/11 09:30:29;;;;;;;10.07;8.05;;;3.80;99.90;;;;;;5109831;28;20282;-81
2021/01/11 09:32:56;;;;;;;10.20;8.05;;;3.70;99.90;;;;;;5112146;28;20184;-81
2021/01/11 09:35:22;;;;;;;9.63;7.82;;;3.70;99.90;;;;;;5111998;28;20580;-81
2021/01/11 09:37:48;;;;;;;10.52;7.85;;;3.70;99.90;;;;;;5111691;28;20262;-81
2021/01/11 09:40:15;;;;;;;9.40;7.13;;;3.80;99.90;;;;;;5111887;28;20225;-81
2021/01/11 09:42:41;;;;;;;9.35;7.90;;;3.80;99.90;;;;;;5111956;28;20217;-81
2021/01/11 09:45:08;;;;;;;8.02;6.88;;;3.80;99.90;;;;;;5111907;28;20279;-81
2021/01/11 09:47:35;;;;;;;8.10;6.90;;;3.80;99.90;;;;;;5111989;28;20188;-81
2021/01/11 09:50:02;;;;;;;10.65;6.72;;;3.80;99.90;;;;;;5112358;28;20279;-81
2021/01/11 09:52:28;;;;;;;9.25;6.15;;;3.80;99.90;;;;;;5112387;28;20290;-80
2021/01/11 09:54:54;;;;;;;8.35;6.57;;;3.90;99.90;;;;;;5111981;28;20184;-81
2021/01/11 09:57:20;;;;;;;7.35;6.50;;;3.90;99.90;;;;;;5111977;28;20278;-81
2021/01/11 09:59:46;;;;;;;8.00;7.15;;;4.00;99.90;;;;;;5111942;28;20234;-82
2021/01/11 10:02:12;;;;;;;10.40;7.67;;;4.00;99.90;;;;;;5112018;28;20208;-82
2021/01/11 10:04:39;;;;;;;8.95;6.55;;;3.90;99.90;;;;;;5112278;28;20446;-82
2021/01/11 10:07:07;;;;;;;8.05;7.25;;;3.90;99.90;;;;;;5109215;28;20271;-81
2021/01/11 10:09:34;;;;;;;7.72;6.05;;;3.90;99.90;;;;;;5111763;28;20211;-81
2021/01/11 10:12:01;;;;;;;9.88;8.00;;;3.90;99.90;;;;;;5112109;28;20192;-82
2021/01/11 10:14:29;;;;;;;7.75;6.82;;;4.00;99.90;;;;;;5112036;28;20657;-81
2021/01/11 10:16:55;;;;;;;6.85;5.88;;;4.00;99.90;;;;;;5112474;28;20267;-81
2021/01/11 10:19:23;;;;;;;7.78;6.70;;;4.00;99.90;;;;;;5112606;28;20188;-81
2021/01/11 10:21:50;;;;;;;8.25;6.70;;;4.00;99.90;;;;;;5112183;28;20585;-81
2021/01/11 10:24:18;;;;;;;8.18;7.07;;;4.00;99.90;;;;;;5112338;28;20190;-81
2021/01/11 10:26:45;;;;;;;11.00;7.75;;;4.00;99.90;;;;;;5112034;28;20987;-80
2021/01/11 10:29:12;;;;;;;6.95;5.95;;;4.20;99.90;;;;;;5112413;28;20183;-82
2021/01/11 10:31:41;;;;;;;7.03;6.03;;;4.20;99.90;;;;;;5112053;28;20187;-82
2021/01/11 10:34:07;;;;;;;8.40;6.43;;;4.20;99.90;;;;;;5112315;28;20274;-82
2021/01/11 10:36:38;;;;;;;7.82;6.57;;;4.20;99.90;;;;;;5108911;28;20976;-82
2021/01/11 10:39:05;;;;;;;6.88;6.20;;;4.20;99.90;;;;;;5111171;28;20223;-82
2021/01/11 10:41:31;;;;;;;7.25;5.57;;;4.20;99.90;;;;;;5111505;28;20624;-82
2021/01/11 10:43:57;;;;;;;9.20;5.97;;;4.20;99.90;;;;;;5111809;28;20615;-82
2021/01/11 10:46:24;;;;;;;6.93;6.00;;;4.10;99.90;;;;;;5111785;28;20266;-82
2021/01/11 10:48:50;;;;;;;6.45;5.35;;;4.10;99.90;;;;;;5114954;28;20188;-82
2021/01/11 10:51:16;;;;;;;9.18;6.70;;;4.10;99.90;;;;;;5115318;28;20607;-82
2021/01/11 10:53:43;;;;;;;9.00;6.32;;;4.10;99.90;;;;;;5115427;28;20664;-82
2021/01/11 10:56:11;;;;;;;8.40;5.25;;;4.20;99.90;;;;;;5115419;28;20267;-82
2021/01/11 10:58:38;;;;;;;6.78;5.57;;;4.20;99.90;;;;;;5115300;28;20274;-82
2021/01/11 11:01:07;;;;;;;7.47;6.18;;;4.10;99.90;;;;;;5115151;28;20230;-82
2021/01/11 11:03:33;;;;;;;8.60;6.50;;;4.10;99.90;;;;;;5114940;28;20184;-82
2021/01/11 11:05:59;;;;;;;7.40;6.00;;;4.10;99.90;;;;;;5115451;28;20266;-82
2021/01/11 11:08:25;;;;;;;7.85;6.18;;;4.10;99.90;;;;;;5115210;28;20272;-82
2021/01/11 11:10:51;;;;;;;6.20;5.60;;;4.10;99.90;;;;;;5115442;28;20266;-82
2021/01/11 11:13:18;;;;;;;6.75;5.40;;;4.00;99.90;;;;;;5115347;28;20283;-82
2021/01/11 11:15:44;;;;;;;6.75;5.88;;;4.10;99.90;;;;;;5115141;28;20183;-82
2021/01/11 11:18:10;;;;;;;7.45;6.00;;;4.00;99.90;;;;;;5115285;28;20184;-82
2021/01/11 11:20:37;;;;;;;7.22;5.70;;;4.10;99.90;;;;;;5115008;28;20206;-83
2021/01/11 11:23:03;;;;;;;6.25;5.65;;;4.10;99.90;;;;;;5114726;28;20542;-82
2021/01/11 11:25:29;;;;;;;7.43;5.85;;;4.00;99.90;;;;;;5115063;28;20267;-78
2021/01/11 11:27:55;;;;;;;6.50;5.53;;;4.00;99.90;;;;;;5114870;28;20245;-78
2021/01/11 11:30:22;;;;;;;9.82;6.63;;;4.10;99.90;;;;;;5114666;28;20533;-78
2021/01/11 11:32:49;;;;;;;5.55;4.95;;;4.00;99.90;;;;;;5114481;28;20271;-78
2021/01/11 11:35:16;;;;;;;6.63;5.75;;;4.10;99.90;;;;;;5114548;28;20271;-78
2021/01/11 11:37:42;;;;;;;6.45;4.97;;;4.10;99.90;;;;;;5110639;28;20192;-77
2021/01/11 11:40:10;;;;;;;5.43;4.55;;;4.10;99.90;;;;;;5110275;28;20314;-77
2021/01/11 11:42:37;;;;;;;6.15;5.32;;;4.10;99.90;;;;;;5110260;28;20192;-77
2021/01/11 11:45:05;;;;;;;6.47;5.40;;;4.10;99.90;;;;;;5114187;28;21004;-77
2021/01/11 11:47:33;;;;;;;5.57;4.93;;;4.20;99.90;;;;;;5114569;28;20195;-77
2021/01/11 11:50:00;;;;;;;6.13;4.93;;;4.10;99.90;;;;;;5114666;28;20191;-77
2021/01/11 11:52:26;;;;;;;5.30;4.80;;;4.10;99.90;;;;;;5114631;28;20206;-77
2021/01/11 11:54:52;;;;;;;7.68;5.80;;;4.00;99.90;;;;;;5114761;28;20287;-77
2021/01/11 11:57:18;;;;;;;8.57;5.68;;;4.00;99.90;;;;;;5114545;28;20271;-77
2021/01/11 11:59:44;;;;;;;7.90;6.07;;;3.90;99.90;;;;;;5114541;28;20211;-77
2021/01/11 12:02:12;;;;;;;6.28;4.97;;;3.90;99.90;;;;;;5114304;28;20551;-77
2021/01/11 12:04:39;;;;;;;6.32;5.65;;;3.80;99.90;;;;;;5114376;28;20211;-77
2021/01/11 12:07:05;;;;;;;5.05;4.55;;;3.80;99.90;;;;;;5114666;28;20195;-76
2021/01/11 12:09:32;;;;;;;6.53;5.70;;;3.80;99.90;;;;;;5114645;28;20238;-76
2021/01/11 12:11:58;;;;;;;6.57;5.88;;;3.80;99.90;;;;;;5114679;28;20286;-76
2021/01/11 12:14:24;;;;;;;9.30;6.50;;;3.90;99.90;;;;;;5114379;28;20271;-77
2021/01/11 12:16:51;;;;;;;6.17;5.60;;;3.90;99.90;;;;;;5114568;28;20682;-77
2021/01/11 12:19:17;;;;;;;7.55;5.95;;;3.90;99.90;;;;;;5114187;28;20541;-77
2021/01/11 12:21:45;;;;;;;9.68;5.85;;;3.90;99.90;;;;;;5114321;28;20641;-77
2021/01/11 12:24:12;;;;;;;7.82;6.35;;;4.00;99.90;;;;;;5114435;28;20212;-77
2021/01/11 12:26:40;;;;;;;9.20;5.53;;;4.00;99.90;;;;;;5114191;28;20188;-78
2021/01/11 12:29:06;;;;;;;5.93;5.30;;;4.00;99.90;;;;;;5114228;28;20187;-78
2021/01/11 12:31:32;;;;;;;8.82;6.03;;;4.00;99.90;;;;;;5114196;28;20328;-78
2021/01/11 12:33:58;;;;;;;7.75;6.07;;;4.10;99.90;;;;;;5113911;28;20713;-78
2021/01/11 12:36:25;;;;;;;8.73;5.97;;;4.10;99.90;;;;;;5114195;28;20284;-78
2021/01/11 12:38:53;;;;;;;5.78;5.28;;;4.10;99.90;;;;;;5113928;28;20639;-77
2021/01/11 12:41:20;;;;;;;7.50;5.88;;;4.10;99.90;;;;;;5114052;28;20320;-77
2021/01/11 12:43:47;;;;;;;7.63;5.45;;;4.10;99.90;;;;;;5113848;28;20198;-77
2021/01/11 12:46:14;;;;;;;6.95;5.60;;;4.10;99.90;;;;;;5113225;28;20195;-77